createdAt,value
2023-01-20T00:01:48.336Z,7.95
2023-01-20T00:04:19.266Z,7.93
2023-01-20T00:06:47.199Z,7.72
2023-01-20T00:09:18.218Z,7.75
2023-01-20T00:11:46.478Z,7.43
2023-01-20T00:14:13.911Z,8.65
2023-01-20T00:16:41.031Z,9.43
2023-01-20T00:19:08.110Z,7.57
2023-01-20T00:21:38.022Z,8.48
2023-01-20T00:24:05.535Z,8.27
2023-01-20T00:26:32.568Z,8.20
2023-01-20T00:28:59.599Z,7.78
2023-01-20T00:31:30.098Z,8.32
2023-01-20T00:33:59.396Z,8.10
2023-01-20T00:36:28.083Z,7.95
2023-01-20T00:38:55.177Z,7.63
2023-01-20T00:41:22.249Z,7.88
2023-01-20T00:43:49.572Z,7.75
2023-01-20T00:46:16.691Z,7.63
2023-01-20T00:48:43.905Z,10.60
2023-01-20T00:51:11.138Z,10.65
2023-01-20T00:53:38.445Z,10.18
2023-01-20T00:56:06.317Z,9.30
2023-01-20T00:58:33.570Z,8.23
2023-01-20T01:01:01.415Z,8.35
2023-01-20T01:03:29.122Z,8.32
2023-01-20T01:06:13.802Z,9.07
2023-01-20T01:08:41.314Z,8.55
2023-01-20T01:11:09.090Z,8.82
2023-01-20T01:13:37.418Z,9.02
2023-01-20T01:16:08.662Z,8.52
2023-01-20T01:18:35.702Z,8.73
2023-01-20T01:21:08.205Z,8.80
2023-01-20T01:23:35.321Z,8.75
2023-01-20T01:26:02.806Z,8.20
2023-01-20T01:28:29.899Z,9.07
2023-01-20T01:31:01.263Z,8.60
2023-01-20T01:33:29.296Z,9.18
2023-01-20T01:36:01.361Z,8.23
2023-01-20T01:38:29.229Z,9.68
2023-01-20T01:40:56.665Z,8.60
2023-01-20T01:43:24.701Z,9.63
2023-01-20T01:45:51.939Z,8.65
2023-01-20T01:48:23.726Z,8.82
2023-01-20T01:51:06.001Z,8.95
2023-01-20T01:53:40.649Z,9.68
2023-01-20T01:56:08.916Z,9.07
2023-01-20T01:58:38.882Z,9.40
2023-01-20T02:01:25.878Z,9.07
2023-01-20T02:03:59.907Z,9.23
2023-01-20T02:06:35.237Z,8.85
2023-01-20T02:09:04.500Z,8.15
2023-01-20T02:11:36.992Z,8.80
2023-01-20T02:14:04.609Z,8.52
2023-01-20T02:16:52.650Z,7.85
2023-01-20T02:19:25.522Z,8.27
2023-01-20T02:22:07.984Z,7.90
2023-01-20T02:24:54.042Z,8.10
2023-01-20T02:27:41.250Z,9.02
2023-01-20T02:30:38.690Z,8.25
2023-01-20T02:33:17.616Z,8.35
2023-01-20T02:35:53.669Z,8.57
2023-01-20T02:38:29.433Z,8.90
2023-01-20T02:41:08.482Z,8.80
2023-01-20T02:43:51.485Z,9.40
2023-01-20T02:46:33.492Z,9.05
2023-01-20T02:49:26.029Z,8.45
2023-01-20T02:52:03.386Z,10.20
2023-01-20T02:54:34.942Z,9.15
2023-01-20T02:57:05.563Z,9.68
2023-01-20T02:59:36.539Z,8.45
2023-01-20T03:02:08.972Z,9.50
2023-01-20T03:04:50.531Z,9.63
2023-01-20T03:07:20.126Z,8.20
2023-01-20T03:09:51.777Z,8.35
2023-01-20T03:12:24.666Z,9.45
2023-01-20T03:14:53.151Z,8.45
2023-01-20T03:17:21.046Z,8.27
2023-01-20T03:19:48.966Z,10.10
2023-01-20T03:22:16.680Z,9.55
2023-01-20T03:24:45.099Z,8.70
2023-01-20T03:27:13.173Z,9.77
2023-01-20T03:29:40.266Z,8.57
2023-01-20T03:32:10.630Z,9.48
2023-01-20T03:34:41.993Z,9.88
2023-01-20T03:37:10.663Z,9.15
2023-01-20T03:39:40.278Z,9.40
2023-01-20T03:42:24.735Z,9.32
2023-01-20T03:47:48.582Z,9.18
2023-01-20T03:50:27.993Z,9.35
2023-01-20T03:53:05.490Z,8.98
2023-01-20T03:55:40.982Z,9.75
2023-01-20T03:58:24.238Z,10.35
2023-01-20T04:00:52.843Z,10.50
2023-01-20T04:03:25.730Z,10.50
2023-01-20T04:05:53.383Z,10.02
2023-01-20T04:08:24.743Z,8.90
2023-01-20T04:10:53.235Z,11.32
2023-01-20T04:13:20.390Z,11.00
2023-01-20T04:15:48.473Z,11.02
2023-01-20T04:18:17.075Z,10.50
2023-01-20T04:20:54.766Z,9.77
2023-01-20T04:23:32.395Z,9.52
2023-01-20T04:25:59.556Z,10.45
2023-01-20T04:28:26.743Z,9.93
2023-01-20T04:30:53.962Z,9.48
2023-01-20T04:33:21.140Z,9.98
2023-01-20T04:35:48.191Z,9.32
2023-01-20T04:38:15.377Z,10.50
2023-01-20T04:40:42.602Z,11.07
2023-01-20T04:43:10.398Z,11.13
2023-01-20T04:45:37.661Z,10.48
2023-01-20T04:48:09.130Z,11.68
2023-01-20T04:50:40.930Z,10.48
2023-01-20T04:53:11.159Z,9.90
2023-01-20T04:55:38.220Z,11.05
2023-01-20T04:58:05.381Z,10.48
2023-01-20T05:00:32.491Z,10.30
2023-01-20T05:03:00.155Z,11.20
2023-01-20T05:05:27.236Z,10.38
2023-01-20T05:07:55.576Z,11.13
2023-01-20T05:10:22.588Z,10.48
2023-01-20T05:12:49.623Z,9.80
2023-01-20T05:15:17.073Z,10.10
2023-01-20T05:17:44.418Z,9.85
2023-01-20T05:20:11.753Z,9.55
2023-01-20T05:22:38.869Z,9.23
2023-01-20T05:25:06.621Z,9.13
2023-01-20T05:27:37.550Z,8.95
2023-01-20T05:30:06.239Z,10.27
2023-01-20T05:32:33.278Z,8.35
2023-01-20T05:35:00.279Z,9.55
2023-01-20T05:37:27.368Z,9.70
2023-01-20T05:39:54.435Z,8.40
2023-01-20T05:42:21.477Z,9.02
2023-01-20T05:44:48.560Z,8.82
2023-01-20T05:47:15.841Z,8.10
2023-01-20T05:49:43.149Z,9.80
2023-01-20T05:52:10.255Z,9.43
2023-01-20T05:54:37.330Z,11.57
2023-01-20T05:57:05.820Z,46.58
2023-01-20T05:59:32.957Z,25.48
2023-01-20T06:02:00.063Z,12.45
2023-01-20T06:04:27.379Z,9.82
2023-01-20T06:06:54.498Z,8.02
2023-01-20T06:09:21.994Z,17.58
2023-01-20T06:11:49.123Z,15.98
2023-01-20T06:14:16.226Z,20.50
2023-01-20T06:16:43.352Z,19.30
2023-01-20T06:19:10.415Z,10.80
2023-01-20T06:21:37.427Z,7.60
2023-01-20T06:24:04.800Z,9.52
2023-01-20T06:26:32.023Z,9.77
2023-01-20T06:29:00.716Z,19.77
2023-01-20T06:31:31.156Z,11.50
2023-01-20T06:33:58.235Z,7.72
2023-01-20T06:36:25.469Z,7.60
2023-01-20T06:38:53.286Z,12.63
2023-01-20T06:41:20.958Z,8.00
2023-01-20T06:43:50.256Z,7.20
2023-01-20T06:46:17.673Z,7.35
2023-01-20T06:48:45.952Z,7.40
2023-01-20T06:51:19.464Z,8.75
2023-01-20T06:53:47.320Z,7.78
2023-01-20T06:56:15.817Z,8.23
2023-01-20T06:58:43.117Z,7.45
2023-01-20T07:01:20.855Z,7.32
2023-01-20T07:03:48.011Z,7.72
2023-01-20T07:06:18.371Z,7.88
2023-01-20T07:08:46.165Z,8.35
2023-01-20T07:11:13.527Z,7.95
2023-01-20T07:13:40.709Z,7.15
2023-01-20T07:16:11.038Z,6.72
2023-01-20T07:18:39.506Z,7.55
2023-01-20T07:21:07.109Z,7.30
2023-01-20T07:23:34.174Z,7.40
2023-01-20T07:26:06.646Z,7.18
2023-01-20T07:28:34.779Z,6.88
2023-01-20T07:31:05.641Z,7.05
2023-01-20T07:33:33.774Z,7.47
2023-01-20T07:36:02.057Z,6.88
2023-01-20T07:38:29.785Z,9.32
2023-01-20T07:41:02.518Z,7.00
2023-01-20T07:43:31.750Z,7.47
2023-01-20T07:46:00.754Z,7.18
2023-01-20T07:48:29.912Z,7.72
2023-01-20T07:51:07.531Z,7.20
2023-01-20T07:53:47.104Z,6.32
2023-01-20T07:56:25.689Z,6.28
2023-01-20T07:58:54.229Z,6.88
2023-01-20T08:01:27.897Z,6.50
2023-01-20T08:03:55.986Z,6.82
2023-01-20T08:06:25.098Z,6.57
2023-01-20T08:08:52.332Z,6.68
2023-01-20T08:11:21.418Z,6.50
2023-01-20T08:13:48.951Z,6.18
2023-01-20T08:16:17.752Z,6.50
2023-01-20T08:18:45.317Z,6.18
2023-01-20T08:21:19.269Z,6.75
2023-01-20T08:23:46.593Z,7.45
2023-01-20T08:26:13.670Z,6.72
2023-01-20T08:28:40.746Z,6.55
2023-01-20T08:31:11.210Z,6.97
2023-01-20T08:33:39.445Z,5.90
2023-01-20T08:36:11.586Z,5.95
2023-01-20T08:38:39.401Z,5.95
2023-01-20T08:41:12.093Z,6.47
2023-01-20T08:43:39.552Z,27.92
2023-01-20T08:46:09.521Z,15.82
2023-01-20T08:48:37.719Z,7.13
2023-01-20T08:51:10.869Z,8.52
2023-01-20T08:53:38.034Z,9.35
2023-01-20T08:56:05.367Z,7.22
2023-01-20T08:58:34.412Z,11.15
2023-01-20T09:01:01.522Z,20.73
2023-01-20T09:03:28.713Z,12.18
2023-01-20T09:05:55.784Z,10.45
2023-01-20T09:08:27.129Z,7.82
2023-01-20T09:10:54.495Z,6.95
2023-01-20T09:13:21.539Z,7.35
2023-01-20T09:15:52.870Z,6.55
2023-01-20T09:18:19.901Z,6.07
2023-01-20T09:20:46.998Z,6.65
2023-01-20T09:23:14.163Z,6.85
2023-01-20T09:25:41.203Z,5.82
2023-01-20T09:28:08.373Z,6.60
2023-01-20T09:30:35.435Z,6.20
2023-01-20T09:33:02.536Z,5.97
2023-01-20T09:35:29.624Z,6.07
2023-01-20T09:38:15.394Z,6.72
2023-01-20T09:41:37.828Z,7.28
2023-01-20T09:44:22.854Z,6.15
2023-01-20T09:47:12.872Z,6.22
2023-01-20T09:50:24.608Z,5.82
2023-01-20T09:53:04.861Z,5.78
2023-01-20T09:55:41.147Z,6.47
2023-01-20T09:58:29.915Z,6.43
2023-01-20T10:01:14.351Z,6.95
2023-01-20T10:06:37.153Z,6.07
2023-01-20T10:09:14.121Z,6.18
2023-01-20T10:11:44.560Z,6.05
2023-01-20T10:14:22.980Z,6.72
2023-01-20T10:17:23.505Z,6.47
2023-01-20T10:20:04.211Z,7.22
2023-01-20T10:22:46.905Z,6.40
2023-01-20T10:25:26.364Z,6.18
2023-01-20T10:27:57.656Z,6.00
2023-01-20T10:30:30.751Z,6.63
2023-01-20T10:33:13.133Z,6.47
2023-01-20T10:35:46.430Z,6.25
2023-01-20T10:38:37.153Z,5.80
2023-01-20T10:41:19.470Z,6.57
2023-01-20T10:43:50.508Z,5.97
2023-01-20T10:46:17.635Z,6.80
2023-01-20T10:48:54.814Z,6.43
2023-01-20T10:51:47.144Z,6.32
2023-01-20T10:54:14.096Z,6.60
2023-01-20T10:56:53.867Z,6.05
2023-01-20T10:59:31.788Z,6.75
2023-01-20T11:02:11.873Z,7.05
2023-01-20T11:04:39.306Z,6.80
2023-01-20T11:07:13.130Z,7.00
2023-01-20T11:09:42.099Z,6.57
2023-01-20T11:12:18.529Z,6.82
2023-01-20T11:14:47.920Z,7.68
2023-01-20T11:17:20.574Z,6.88
2023-01-20T11:19:58.300Z,7.50
2023-01-20T11:22:34.281Z,6.63
2023-01-20T11:25:04.396Z,6.70
2023-01-20T11:27:41.475Z,6.72
2023-01-20T11:30:26.356Z,7.22
2023-01-20T11:33:17.464Z,6.97
2023-01-20T11:36:03.326Z,6.70
2023-01-20T11:38:43.449Z,7.10
2023-01-20T11:41:25.211Z,6.53
2023-01-20T11:43:57.398Z,6.43
2023-01-20T11:46:32.410Z,7.03
2023-01-20T11:49:19.667Z,6.82
2023-01-20T11:51:55.289Z,6.72
2023-01-20T11:54:25.314Z,6.38
2023-01-20T11:56:57.147Z,6.93
2023-01-20T11:59:33.010Z,7.13
2023-01-20T12:02:04.607Z,7.13
2023-01-20T12:04:47.971Z,6.60
2023-01-20T12:07:30.789Z,7.25
2023-01-20T12:10:24.587Z,6.82
2023-01-20T12:13:02.155Z,7.07
2023-01-20T12:15:45.587Z,6.85
2023-01-20T12:18:36.300Z,7.13
2023-01-20T12:21:18.559Z,6.97
2023-01-20T12:24:02.988Z,6.70
2023-01-20T12:26:34.434Z,7.20
2023-01-20T12:29:10.701Z,6.53
2023-01-20T12:31:37.941Z,7.28
2023-01-20T12:34:11.562Z,6.88
2023-01-20T12:37:08.278Z,7.35
2023-01-20T12:39:45.957Z,7.07
2023-01-20T12:42:31.455Z,6.50
2023-01-20T12:45:01.299Z,7.47
2023-01-20T12:47:37.427Z,6.95
2023-01-20T12:50:32.204Z,6.72
2023-01-20T12:55:29.187Z,7.15
2023-01-20T12:58:24.887Z,7.90
2023-01-20T13:01:25.955Z,8.27
2023-01-20T13:04:15.428Z,7.75
2023-01-20T13:07:04.348Z,7.68
2023-01-20T13:10:09.846Z,7.60
2023-01-20T13:12:45.790Z,7.35
2023-01-20T13:15:29.228Z,6.80
2023-01-20T13:18:11.474Z,7.55
2023-01-20T13:20:41.308Z,7.78
2023-01-20T13:23:15.069Z,7.03
2023-01-20T13:25:44.549Z,7.88
2023-01-20T13:28:24.052Z,6.55
2023-01-20T13:30:54.422Z,7.97
2023-01-20T13:33:40.665Z,7.78
2023-01-20T13:36:27.976Z,7.45
2023-01-20T13:39:33.829Z,8.32
2023-01-20T13:42:00.888Z,7.95
2023-01-20T13:44:41.466Z,7.60
2023-01-20T13:47:11.084Z,8.25
2023-01-20T13:49:44.272Z,8.45
2023-01-20T13:52:12.202Z,8.82
2023-01-20T13:54:44.554Z,7.80
2023-01-20T13:57:23.305Z,8.85
2023-01-20T13:59:50.895Z,8.63
2023-01-20T14:02:19.450Z,8.50
2023-01-20T14:04:47.605Z,8.55
2023-01-20T14:07:29.990Z,9.80
2023-01-20T14:09:59.939Z,8.25
2023-01-20T14:12:28.036Z,8.20
2023-01-20T14:14:55.452Z,9.18
2023-01-20T14:17:24.713Z,8.80
2023-01-20T14:19:54.720Z,8.32
2023-01-20T14:22:32.342Z,9.02
2023-01-20T14:25:00.998Z,8.82
2023-01-20T14:27:37.523Z,8.85
2023-01-20T14:30:26.170Z,8.82
2023-01-20T14:32:54.201Z,8.15
2023-01-20T14:35:32.412Z,9.52
2023-01-20T14:37:59.905Z,8.77
2023-01-20T14:40:31.235Z,8.27
2023-01-20T14:43:13.503Z,9.13
2023-01-20T14:45:43.813Z,10.02
2023-01-20T14:48:19.133Z,10.07
2023-01-20T14:50:54.168Z,9.02
2023-01-20T14:53:21.206Z,9.95
2023-01-20T14:56:05.191Z,9.75
2023-01-20T14:58:32.336Z,9.65
2023-01-20T15:01:05.460Z,10.43
2023-01-20T15:03:32.983Z,10.32
2023-01-20T15:06:00.986Z,9.30
2023-01-20T15:09:06.197Z,9.63
2023-01-20T15:11:34.670Z,9.90
2023-01-20T15:14:05.772Z,10.13
2023-01-20T15:16:47.573Z,10.10
2023-01-20T15:19:18.514Z,10.30
2023-01-20T15:21:53.517Z,10.23
2023-01-20T15:24:21.803Z,9.60
2023-01-20T15:26:51.992Z,10.00
2023-01-20T15:29:24.492Z,10.35
2023-01-20T15:31:53.100Z,10.32
2023-01-20T15:34:21.461Z,11.07
2023-01-20T15:36:50.439Z,10.25
2023-01-20T15:39:21.087Z,11.02
2023-01-20T15:41:48.959Z,11.05
2023-01-20T15:44:16.235Z,11.02
2023-01-20T15:46:43.267Z,11.27
2023-01-20T15:49:17.455Z,10.32
2023-01-20T15:54:14.043Z,9.27
2023-01-20T15:56:43.127Z,9.55
2023-01-20T15:59:17.319Z,10.30
2023-01-20T16:01:50.232Z,9.50
2023-01-20T16:04:17.763Z,9.35
2023-01-20T16:06:45.392Z,9.43
2023-01-20T16:09:27.115Z,9.57
2023-01-20T16:11:55.492Z,9.00
2023-01-20T16:14:22.562Z,9.23
2023-01-20T16:16:49.692Z,9.30
2023-01-20T16:19:17.296Z,8.82
2023-01-20T16:21:45.591Z,9.38
2023-01-20T16:24:13.124Z,9.30
2023-01-20T16:26:40.196Z,9.65
2023-01-20T16:29:09.592Z,8.45
2023-01-20T16:31:36.967Z,9.48
2023-01-20T16:34:05.128Z,9.25
2023-01-20T16:36:32.248Z,9.05
2023-01-20T16:38:59.290Z,8.85
2023-01-20T16:41:31.043Z,8.43
2023-01-20T16:43:58.662Z,8.45
2023-01-20T16:46:30.145Z,8.27
2023-01-20T16:49:02.183Z,8.80
2023-01-20T16:51:30.740Z,7.97
2023-01-20T16:53:59.868Z,8.40
2023-01-20T16:56:29.849Z,8.15
2023-01-20T16:58:59.135Z,8.57
2023-01-20T17:01:26.437Z,8.38
2023-01-20T17:03:55.554Z,8.70
2023-01-20T17:06:25.474Z,9.05
2023-01-20T17:08:54.858Z,8.35
2023-01-20T17:11:24.713Z,8.68
2023-01-20T17:13:52.654Z,8.93
2023-01-20T17:16:20.918Z,9.98
2023-01-20T17:18:55.837Z,9.18
2023-01-20T17:21:24.436Z,10.27
2023-01-20T17:23:53.464Z,9.40
2023-01-20T17:26:21.815Z,10.55
2023-01-20T17:28:49.389Z,9.82
2023-01-20T17:31:16.495Z,9.00
2023-01-20T17:33:47.555Z,8.65
2023-01-20T17:36:16.906Z,8.80
2023-01-20T17:38:44.404Z,10.02
2023-01-20T17:41:13.025Z,9.23
2023-01-20T17:43:43.088Z,8.80
2023-01-20T17:46:22.398Z,9.25
2023-01-20T17:48:50.601Z,8.95
2023-01-20T17:51:23.299Z,8.68
2023-01-20T17:53:53.854Z,8.68
2023-01-20T17:56:22.432Z,8.90
2023-01-20T17:58:50.385Z,8.50
2023-01-20T18:01:27.330Z,8.38
2023-01-20T18:03:56.846Z,9.27
2023-01-20T18:06:25.466Z,7.80
2023-01-20T18:08:55.034Z,8.65
2023-01-20T18:11:27.239Z,8.65
2023-01-20T18:13:56.880Z,8.50
2023-01-20T18:16:27.860Z,8.32
2023-01-20T18:18:58.904Z,7.95
2023-01-20T18:21:34.693Z,7.93
2023-01-20T18:24:03.169Z,8.55
2023-01-20T18:26:33.475Z,7.72
2023-01-20T18:29:10.913Z,8.25
2023-01-20T18:31:38.434Z,7.47
2023-01-20T18:34:08.820Z,7.82
2023-01-20T18:36:54.606Z,8.85
2023-01-20T18:39:25.281Z,8.85
2023-01-20T18:41:52.974Z,8.73
2023-01-20T18:44:21.138Z,8.20
2023-01-20T18:46:49.523Z,9.20
2023-01-20T18:49:18.149Z,9.65
2023-01-20T18:51:45.339Z,10.27
2023-01-20T18:54:17.615Z,9.35
2023-01-20T18:56:45.136Z,8.77
2023-01-20T18:59:13.095Z,10.18
2023-01-20T19:01:42.066Z,11.13
2023-01-20T19:04:12.212Z,9.73
2023-01-20T19:06:41.647Z,10.68
2023-01-20T19:09:09.896Z,11.93
2023-01-20T19:11:40.886Z,11.55
2023-01-20T19:14:11.927Z,11.40
2023-01-20T19:16:42.429Z,12.20
2023-01-20T19:19:11.891Z,11.75
2023-01-20T19:21:39.254Z,11.45
2023-01-20T19:24:08.116Z,12.43
2023-01-20T19:26:39.102Z,12.10
2023-01-20T19:29:09.306Z,11.13
2023-01-20T19:31:40.199Z,11.50
2023-01-20T19:34:08.436Z,11.32
2023-01-20T19:36:37.016Z,12.05
2023-01-20T19:39:05.024Z,13.07
2023-01-20T19:41:36.495Z,11.35
2023-01-20T19:44:06.813Z,11.93
2023-01-20T19:46:37.481Z,12.65
2023-01-20T19:49:04.778Z,12.15
2023-01-20T19:51:32.590Z,13.20
2023-01-20T19:54:01.579Z,12.27
2023-01-20T19:56:34.313Z,12.60
2023-01-20T19:59:04.358Z,13.02
2023-01-20T20:01:33.620Z,12.85
2023-01-20T20:04:09.079Z,11.98
2023-01-20T20:06:39.062Z,12.43
2023-01-20T20:09:14.505Z,12.35
2023-01-20T20:11:42.255Z,12.95
2023-01-20T20:14:13.354Z,13.55
2023-01-20T20:16:40.925Z,13.13
2023-01-20T20:19:10.095Z,14.95
2023-01-20T20:21:37.171Z,11.85
2023-01-20T20:24:08.034Z,13.13
2023-01-20T20:26:37.042Z,11.85
2023-01-20T20:29:06.027Z,12.25
2023-01-20T20:31:34.553Z,12.15
2023-01-20T20:34:03.094Z,11.52
2023-01-20T20:36:34.093Z,12.52
2023-01-20T20:39:03.584Z,12.57
2023-01-20T20:41:35.486Z,12.52
2023-01-20T20:44:03.799Z,11.95
2023-01-20T20:46:32.330Z,11.45
2023-01-20T20:49:01.219Z,12.35
2023-01-20T20:51:37.270Z,11.55
2023-01-20T20:54:09.435Z,11.73
2023-01-20T20:56:36.683Z,10.85
2023-01-20T20:59:04.036Z,11.18
2023-01-20T21:01:33.749Z,11.07
2023-01-20T21:04:02.314Z,11.02
2023-01-20T21:06:30.843Z,9.88
2023-01-20T21:08:58.935Z,9.82
2023-01-20T21:11:26.535Z,10.90
2023-01-20T21:13:53.799Z,11.85
2023-01-20T21:16:23.469Z,11.50
2023-01-20T21:18:53.842Z,10.80
2023-01-20T21:21:21.329Z,10.80
2023-01-20T21:23:56.330Z,10.77
2023-01-20T21:26:25.896Z,11.25
2023-01-20T21:28:54.474Z,10.93
2023-01-20T21:31:26.820Z,10.77
2023-01-20T21:34:00.644Z,10.07
2023-01-20T21:36:29.315Z,11.07
2023-01-20T21:38:56.558Z,10.32
2023-01-20T21:41:23.808Z,9.75
2023-01-20T21:44:09.549Z,9.32
2023-01-20T21:46:39.811Z,9.98
2023-01-20T21:49:26.670Z,9.68
2023-01-20T21:52:13.487Z,9.68
2023-01-20T21:54:41.582Z,11.07
2023-01-20T21:57:10.305Z,10.75
2023-01-20T21:59:37.631Z,10.80
2023-01-20T22:02:05.058Z,10.48
2023-01-20T22:04:33.722Z,10.70
2023-01-20T22:07:00.815Z,11.00
2023-01-20T22:09:27.893Z,12.02
2023-01-20T22:11:55.187Z,11.52
2023-01-20T22:14:24.451Z,11.02
2023-01-20T22:16:51.751Z,9.95
2023-01-20T22:19:18.931Z,10.63
2023-01-20T22:21:46.072Z,9.48
2023-01-20T22:24:19.399Z,10.00
2023-01-20T22:26:49.103Z,9.93
2023-01-20T22:29:21.494Z,8.55
2023-01-20T22:31:52.841Z,8.82
2023-01-20T22:34:20.538Z,8.30
2023-01-20T22:36:48.069Z,8.07
2023-01-20T22:39:16.031Z,8.40
2023-01-20T22:41:44.884Z,8.82
2023-01-20T22:44:11.944Z,8.60
2023-01-20T22:46:39.163Z,7.50
2023-01-20T22:49:06.460Z,8.18
2023-01-20T22:51:33.675Z,7.22
2023-01-20T22:54:02.244Z,8.77
2023-01-20T22:56:31.818Z,7.78
2023-01-20T22:58:59.813Z,7.45
2023-01-20T23:01:30.704Z,7.40
2023-01-20T23:04:00.137Z,7.35
2023-01-20T23:06:29.380Z,7.18
2023-01-20T23:08:56.525Z,8.02
2023-01-20T23:11:25.044Z,7.50
2023-01-20T23:13:53.035Z,8.07
2023-01-20T23:16:22.627Z,7.85
2023-01-20T23:18:51.337Z,7.82
2023-01-20T23:21:19.149Z,8.77
2023-01-20T23:23:46.452Z,7.78
2023-01-20T23:26:18.616Z,8.00
2023-01-20T23:28:47.594Z,7.55
2023-01-20T23:31:16.368Z,7.70
2023-01-20T23:33:44.580Z,7.47
2023-01-20T23:36:19.008Z,7.93
2023-01-20T23:38:46.199Z,6.20
2023-01-20T23:41:14.796Z,7.47
2023-01-20T23:43:42.297Z,6.78
2023-01-20T23:46:10.241Z,6.45
2023-01-20T23:48:38.030Z,6.90
2023-01-20T23:51:06.631Z,6.80
2023-01-20T23:53:36.993Z,6.85
2023-01-20T23:56:07.750Z,6.60
2023-01-20T23:58:35.089Z,6.68
